createdAt,value
2022-08-07T00:00:12.296Z,7.10
2022-08-07T00:06:14.719Z,6.45
2022-08-07T00:12:19.385Z,7.53
2022-08-07T00:18:25.130Z,7.57
2022-08-07T00:24:27.538Z,6.75
2022-08-07T00:30:33.891Z,6.85
2022-08-07T00:36:38.575Z,8.30
2022-08-07T00:42:45.612Z,7.35
2022-08-07T00:48:52.619Z,7.22
2022-08-07T00:54:55.284Z,6.75
2022-08-07T01:00:57.631Z,7.00
2022-08-07T01:07:01.824Z,6.93
2022-08-07T01:13:05.539Z,7.30
2022-08-07T01:19:10.804Z,7.45
2022-08-07T01:25:53.500Z,7.47
2022-08-07T01:31:46.126Z,7.32
2022-08-07T01:37:52.218Z,7.65
2022-08-07T01:43:56.912Z,7.43
2022-08-07T01:50:00.011Z,7.18
2022-08-07T01:56:15.862Z,6.88
2022-08-07T02:03:05.637Z,7.07
2022-08-07T02:08:54.206Z,6.47
2022-08-07T02:15:01.911Z,6.93
2022-08-07T02:21:16.302Z,7.50
2022-08-07T02:27:21.170Z,5.93
2022-08-07T02:33:32.909Z,6.28
2022-08-07T02:40:02.420Z,7.45
2022-08-07T02:46:20.818Z,7.07
2022-08-07T02:52:40.039Z,7.72
2022-08-07T02:58:56.561Z,6.80
2022-08-07T03:05:06.785Z,7.70
2022-08-07T03:11:10.722Z,6.85
2022-08-07T03:17:17.354Z,8.13
2022-08-07T03:23:21.749Z,7.53
2022-08-07T03:29:49.608Z,7.82
2022-08-07T03:35:57.523Z,7.60
2022-08-07T03:42:04.953Z,8.45
2022-08-07T03:48:10.019Z,7.78
2022-08-07T03:54:35.182Z,8.38
2022-08-07T04:00:46.303Z,8.05
2022-08-07T04:06:57.362Z,7.72
2022-08-07T04:13:04.318Z,7.57
2022-08-07T04:19:15.185Z,8.07
2022-08-07T04:25:29.175Z,7.75
2022-08-07T04:31:39.294Z,7.93
2022-08-07T04:38:03.044Z,8.63
2022-08-07T04:44:18.229Z,8.40
2022-08-07T04:50:42.490Z,7.82
2022-08-07T04:58:16.494Z,7.50
2022-08-07T05:04:00.623Z,7.50
2022-08-07T05:10:11.778Z,8.70
2022-08-07T05:16:18.848Z,8.48
2022-08-07T05:22:27.702Z,7.78
2022-08-07T05:28:36.056Z,7.70
2022-08-07T05:34:44.153Z,7.95
2022-08-07T05:40:51.547Z,8.30
2022-08-07T05:46:56.973Z,7.97
2022-08-07T05:53:02.559Z,7.90
2022-08-07T05:59:15.522Z,8.15
2022-08-07T06:05:25.831Z,7.18
2022-08-07T06:11:34.501Z,7.30
2022-08-07T06:17:38.581Z,6.82
2022-08-07T06:24:37.199Z,6.90
2022-08-07T06:30:07.141Z,6.40
2022-08-07T06:42:38.438Z,6.30
2022-08-07T06:48:47.596Z,5.70
2022-08-07T06:55:32.640Z,6.97
2022-08-07T07:01:19.153Z,6.55
2022-08-07T07:07:59.879Z,6.53
2022-08-07T07:13:58.023Z,6.30
2022-08-07T07:20:09.375Z,6.40
2022-08-07T07:26:33.481Z,6.85
2022-08-07T07:32:40.732Z,7.60
2022-08-07T07:38:46.188Z,7.07
2022-08-07T07:44:51.179Z,6.18
2022-08-07T07:50:55.853Z,6.38
2022-08-07T07:56:59.615Z,5.70
2022-08-07T08:03:08.767Z,6.25
2022-08-07T08:09:12.333Z,4.93
2022-08-07T08:15:16.209Z,5.38
2022-08-07T08:22:00.583Z,5.13
2022-08-07T08:28:09.886Z,5.93
2022-08-07T08:34:26.748Z,6.10
2022-08-07T08:40:36.303Z,6.10
2022-08-07T08:47:18.084Z,5.80
2022-08-07T08:53:46.408Z,5.65
2022-08-07T09:00:12.512Z,5.65
2022-08-07T09:06:53.069Z,5.45
2022-08-07T09:13:38.013Z,6.00
2022-08-07T09:19:52.065Z,6.32
2022-08-07T09:26:25.403Z,6.85
2022-08-07T09:32:58.481Z,6.63
2022-08-07T09:39:27.303Z,6.35
2022-08-07T09:47:27.604Z,5.97
2022-08-07T09:52:16.614Z,6.13
2022-08-07T10:06:00.567Z,5.65
2022-08-07T10:12:52.693Z,5.95
2022-08-07T10:19:40.935Z,6.47
2022-08-07T10:26:24.541Z,6.45
2022-08-07T10:33:04.362Z,6.40
2022-08-07T10:39:41.362Z,6.47
2022-08-07T10:45:57.984Z,5.90
2022-08-07T10:52:13.784Z,6.40
2022-08-07T10:58:24.937Z,6.45
2022-08-07T11:04:52.544Z,5.85
2022-08-07T11:11:20.216Z,6.38
2022-08-07T11:18:04.848Z,5.70
2022-08-07T11:24:22.264Z,5.82
2022-08-07T11:30:39.038Z,6.68
2022-08-07T11:36:56.414Z,4.73
2022-08-07T11:43:08.460Z,5.00
2022-08-07T11:49:51.022Z,5.47
2022-08-07T11:56:09.450Z,4.60
2022-08-07T12:02:32.898Z,5.13
2022-08-07T12:08:39.302Z,5.18
2022-08-07T12:14:56.346Z,4.33
2022-08-07T12:22:38.984Z,5.85
2022-08-07T12:28:32.155Z,4.85
2022-08-07T12:34:39.977Z,4.70
2022-08-07T12:40:50.200Z,5.50
2022-08-07T12:47:07.283Z,5.22
2022-08-07T12:54:23.999Z,5.40
2022-08-07T13:00:05.674Z,5.55
2022-08-07T13:07:01.928Z,5.82
2022-08-07T13:13:46.930Z,4.97
2022-08-07T13:19:56.122Z,5.05
2022-08-07T13:26:32.021Z,5.60
2022-08-07T13:32:43.198Z,6.43
2022-08-07T13:38:56.039Z,6.57
2022-08-07T13:45:20.776Z,6.05
2022-08-07T13:52:22.201Z,6.40
2022-08-07T13:58:28.133Z,6.35
2022-08-07T14:04:49.492Z,6.80
2022-08-07T14:11:02.048Z,6.22
2022-08-07T14:18:12.097Z,4.65
2022-08-07T14:24:01.048Z,5.07
2022-08-07T14:30:11.949Z,10.15
2022-08-07T14:36:15.391Z,19.55
2022-08-07T14:42:31.525Z,5.82
2022-08-07T14:48:38.179Z,5.68
2022-08-07T14:54:43.112Z,3.55
2022-08-07T15:00:51.483Z,3.83
2022-08-07T15:06:54.399Z,3.72
2022-08-07T15:13:00.307Z,4.47
2022-08-07T15:19:08.424Z,3.58
2022-08-07T15:25:19.248Z,3.50
2022-08-07T15:32:00.590Z,4.03
2022-08-07T15:38:04.876Z,3.95
2022-08-07T15:44:20.050Z,3.42
2022-08-07T15:50:37.636Z,3.40
2022-08-07T15:56:52.880Z,2.95
2022-08-07T16:02:57.946Z,3.45
2022-08-07T16:09:07.647Z,3.75
2022-08-07T16:15:54.945Z,3.72
2022-08-07T16:22:05.837Z,3.97
2022-08-07T16:30:06.461Z,3.72
2022-08-07T16:34:57.085Z,3.58
2022-08-07T16:41:23.439Z,4.10
2022-08-07T16:47:51.450Z,2.80
2022-08-07T16:54:11.478Z,3.35
2022-08-07T17:00:29.601Z,3.65
2022-08-07T17:07:03.280Z,4.28
2022-08-07T17:14:18.641Z,3.90
2022-08-07T17:20:23.098Z,4.85
2022-08-07T17:27:03.836Z,3.95
2022-08-07T17:33:39.153Z,4.25
2022-08-07T17:40:10.617Z,3.47
2022-08-07T17:46:21.699Z,4.85
2022-08-07T17:52:41.053Z,4.30
2022-08-07T17:58:57.087Z,4.30
2022-08-07T18:05:28.590Z,4.57
2022-08-07T18:12:16.227Z,5.65
2022-08-07T18:19:02.414Z,5.85
2022-08-07T18:24:53.906Z,5.78
2022-08-07T18:30:56.195Z,4.82
2022-08-07T18:38:55.037Z,4.45
2022-08-07T18:44:25.841Z,4.85
2022-08-07T18:50:46.144Z,5.32
2022-08-07T18:57:23.328Z,5.80
2022-08-07T19:03:38.143Z,6.47
2022-08-07T19:10:03.715Z,5.78
2022-08-07T19:17:00.315Z,6.40
2022-08-07T19:22:47.746Z,7.25
2022-08-07T19:30:56.435Z,5.50
2022-08-07T19:35:33.250Z,5.65
2022-08-07T19:42:08.530Z,5.05
2022-08-07T19:48:18.810Z,4.70
2022-08-07T19:54:30.946Z,4.80
2022-08-07T20:00:53.876Z,4.93
2022-08-07T20:06:58.153Z,5.32
2022-08-07T20:13:05.999Z,5.95
2022-08-07T20:19:12.306Z,6.25
2022-08-07T20:25:20.342Z,5.05
2022-08-07T20:31:24.109Z,4.13
2022-08-07T20:37:55.429Z,4.75
2022-08-07T20:44:02.720Z,4.72
2022-08-07T20:50:07.593Z,5.15
2022-08-07T20:56:10.827Z,5.18
2022-08-07T21:02:35.216Z,5.18
2022-08-07T21:08:51.749Z,5.28
2022-08-07T21:14:57.393Z,5.60
2022-08-07T21:21:00.804Z,5.15
2022-08-07T21:27:12.898Z,6.13
2022-08-07T21:33:29.293Z,5.80
2022-08-07T21:39:56.649Z,5.03
2022-08-07T21:46:10.941Z,6.13
2022-08-07T21:52:45.010Z,6.07
2022-08-07T21:59:06.064Z,6.43
2022-08-07T22:05:22.122Z,5.80
2022-08-07T22:12:04.904Z,5.97
2022-08-07T22:18:06.918Z,5.65
2022-08-07T22:24:19.994Z,6.28
2022-08-07T22:30:27.241Z,5.72
2022-08-07T22:36:52.543Z,6.22
2022-08-07T22:43:05.914Z,6.10
2022-08-07T22:49:33.939Z,5.32
2022-08-07T22:55:58.042Z,5.18
2022-08-07T23:02:30.320Z,5.90
2022-08-07T23:10:00.434Z,6.25
2022-08-07T23:16:06.007Z,5.60
2022-08-07T23:22:07.435Z,5.88
2022-08-07T23:28:35.810Z,5.03
2022-08-07T23:35:11.970Z,5.93
2022-08-07T23:41:47.679Z,5.78
2022-08-07T23:48:33.824Z,5.50
2022-08-07T23:54:46.418Z,5.68
